createdAt,value
2022-09-23T00:00:58.685Z,958.96
2022-09-23T00:03:58.597Z,959.04
2022-09-23T00:06:58.764Z,959.01
2022-09-23T00:09:59.343Z,958.99
2022-09-23T00:12:59.477Z,958.92
2022-09-23T00:15:58.940Z,958.99
2022-09-23T00:18:58.555Z,958.86
2022-09-23T00:21:58.442Z,958.88
2022-09-23T00:24:59.135Z,958.94
2022-09-23T00:27:59.314Z,958.98
2022-09-23T00:31:00.195Z,958.91
2022-09-23T00:33:59.160Z,958.86
2022-09-23T00:36:59.236Z,958.81
2022-09-23T00:39:59.258Z,958.91
2022-09-23T00:42:59.031Z,958.76
2022-09-23T00:45:59.410Z,958.94
2022-09-23T00:48:59.546Z,958.83
2022-09-23T00:51:58.297Z,958.81
2022-09-23T00:54:58.833Z,958.87
2022-09-23T00:57:58.855Z,958.79
2022-09-23T01:00:59.052Z,958.69
2022-09-23T01:03:58.605Z,958.7
2022-09-23T01:06:58.540Z,958.7
2022-09-23T01:09:58.661Z,958.72
2022-09-23T01:12:58.338Z,958.68
2022-09-23T01:15:59.007Z,958.64
2022-09-23T01:18:58.686Z,958.63
2022-09-23T01:21:59.529Z,958.54
2022-09-23T01:24:58.928Z,958.55
2022-09-23T01:27:59.336Z,958.5
2022-09-23T01:30:59.368Z,958.56
2022-09-23T01:33:58.917Z,958.53
2022-09-23T01:36:58.690Z,958.47
2022-09-23T01:39:59.295Z,958.55
2022-09-23T01:42:59.225Z,958.52
2022-09-23T01:45:59.363Z,958.43
2022-09-23T01:48:59.205Z,958.46
2022-09-23T01:51:59.051Z,958.37
2022-09-23T01:54:58.996Z,958.43
2022-09-23T01:57:59.000Z,958.34
2022-09-23T02:00:59.057Z,958.33
2022-09-23T02:03:58.945Z,958.37
2022-09-23T02:06:58.816Z,958.3
2022-09-23T02:09:58.853Z,958.34
2022-09-23T02:12:59.159Z,958.27
2022-09-23T02:15:58.743Z,958.38
2022-09-23T02:18:58.849Z,958.37
2022-09-23T02:21:59.096Z,958.44
2022-09-23T02:24:58.866Z,958.37
2022-09-23T02:27:58.693Z,958.4
2022-09-23T02:30:59.469Z,958.41
2022-09-23T02:33:59.122Z,958.4
2022-09-23T02:36:58.460Z,958.34
2022-09-23T02:39:58.796Z,958.41
2022-09-23T02:42:58.492Z,958.42
2022-09-23T02:45:59.574Z,958.33
2022-09-23T02:48:59.304Z,958.31
2022-09-23T02:51:58.230Z,958.26
2022-09-23T02:54:58.640Z,958.31
2022-09-23T02:57:58.985Z,958.17
2022-09-23T03:00:59.503Z,958.15
2022-09-23T03:03:58.247Z,958.21
2022-09-23T03:06:59.208Z,958.12
2022-09-23T03:10:00.227Z,958.17
2022-09-23T03:12:58.661Z,958.15
2022-09-23T03:15:58.850Z,958.14
2022-09-23T03:18:58.932Z,958.08
2022-09-23T03:21:58.866Z,958.07
2022-09-23T03:24:58.697Z,958.0
2022-09-23T03:27:58.774Z,958.05
2022-09-23T03:30:58.807Z,958.1
2022-09-23T03:33:58.686Z,958.04
2022-09-23T03:36:58.862Z,957.99
2022-09-23T03:39:59.569Z,957.98
2022-09-23T03:42:58.595Z,958.02
2022-09-23T03:45:59.437Z,957.84
2022-09-23T03:48:58.512Z,957.97
2022-09-23T03:52:00.216Z,957.91
2022-09-23T03:54:59.251Z,957.84
2022-09-23T03:57:58.631Z,957.85
2022-09-23T04:00:59.400Z,957.84
2022-09-23T04:03:58.857Z,957.9
2022-09-23T04:06:59.066Z,957.84
2022-09-23T04:09:58.705Z,957.84
2022-09-23T04:12:59.039Z,957.84
2022-09-23T04:15:59.155Z,957.76
2022-09-23T04:18:59.327Z,957.79
2022-09-23T04:21:59.033Z,957.7
2022-09-23T04:24:58.996Z,957.76
2022-09-23T04:27:58.791Z,957.72
2022-09-23T04:30:58.924Z,957.7
2022-09-23T04:33:58.927Z,957.74
2022-09-23T04:36:58.713Z,957.67
2022-09-23T04:39:58.771Z,957.69
2022-09-23T04:42:59.101Z,957.67
2022-09-23T04:45:59.891Z,957.73
2022-09-23T04:48:59.647Z,957.72
2022-09-23T04:51:58.708Z,957.75
2022-09-23T04:54:59.672Z,957.75
2022-09-23T04:57:59.136Z,957.75
2022-09-23T05:01:04.369Z,957.78
2022-09-23T05:03:59.709Z,957.78
2022-09-23T05:07:02.303Z,957.75
2022-09-23T05:09:59.368Z,957.78
2022-09-23T05:12:58.679Z,957.78
2022-09-23T05:15:59.364Z,957.81
2022-09-23T05:18:59.246Z,957.77
2022-09-23T05:21:59.192Z,957.8
2022-09-23T05:24:58.446Z,957.8
2022-09-23T05:27:59.112Z,957.81
2022-09-23T05:30:59.924Z,957.81
2022-09-23T05:33:58.874Z,957.71
2022-09-23T05:36:58.841Z,957.77
2022-09-23T05:39:59.200Z,957.78
2022-09-23T05:42:59.041Z,957.76
2022-09-23T05:45:59.908Z,957.84
2022-09-23T05:49:02.495Z,957.77
2022-09-23T05:51:59.285Z,957.72
2022-09-23T05:54:58.765Z,957.75
2022-09-23T05:57:59.536Z,957.83
2022-09-23T06:00:59.391Z,957.8
2022-09-23T06:03:58.552Z,957.7
2022-09-23T06:07:03.260Z,957.75
2022-09-23T06:09:59.956Z,957.71
2022-09-23T06:12:58.455Z,957.76
2022-09-23T06:15:59.803Z,957.78
2022-09-23T06:19:04.449Z,957.75
2022-09-23T06:21:58.391Z,957.74
2022-09-23T06:24:59.349Z,957.75
2022-09-23T06:27:59.422Z,957.74
2022-09-23T06:30:59.581Z,957.69
2022-09-23T06:34:05.247Z,957.75
2022-09-23T06:36:59.723Z,957.66
2022-09-23T06:39:58.580Z,957.66
2022-09-23T06:42:58.544Z,957.68
2022-09-23T06:45:59.263Z,957.71
2022-09-23T06:48:58.537Z,957.69
2022-09-23T06:51:59.007Z,957.61
2022-09-23T06:54:58.791Z,957.74
2022-09-23T06:57:58.692Z,957.61
2022-09-23T07:00:59.729Z,957.7
2022-09-23T07:03:59.329Z,957.65
2022-09-23T07:06:58.690Z,957.72
2022-09-23T07:09:58.756Z,957.71
2022-09-23T07:12:58.922Z,957.75
2022-09-23T07:15:58.763Z,957.78
2022-09-23T07:18:58.694Z,957.7
2022-09-23T07:21:58.553Z,957.66
2022-09-23T07:24:58.981Z,957.72
2022-09-23T07:27:59.238Z,957.78
2022-09-23T07:31:00.914Z,957.67
2022-09-23T07:33:58.775Z,957.67
2022-09-23T07:36:59.154Z,957.72
2022-09-23T07:39:58.816Z,957.75
2022-09-23T07:42:58.811Z,957.73
2022-09-23T07:45:59.356Z,957.75
2022-09-23T07:48:59.300Z,957.73
2022-09-23T07:51:59.126Z,957.75
2022-09-23T07:54:58.963Z,957.67
2022-09-23T07:57:59.364Z,957.82
2022-09-23T08:00:59.298Z,957.89
2022-09-23T08:03:58.892Z,957.78
2022-09-23T08:06:59.204Z,957.79
2022-09-23T08:09:59.833Z,957.81
2022-09-23T08:12:59.612Z,957.76
2022-09-23T08:15:58.882Z,957.78
2022-09-23T08:18:59.346Z,957.74
2022-09-23T08:21:58.668Z,957.78
2022-09-23T08:24:59.499Z,957.87
2022-09-23T08:27:58.669Z,957.75
2022-09-23T08:31:00.727Z,957.77
2022-09-23T08:33:58.518Z,957.76
2022-09-23T08:36:59.531Z,957.75
2022-09-23T08:39:59.472Z,957.71
2022-09-23T08:42:58.451Z,957.69
2022-09-23T08:45:58.724Z,957.71
2022-09-23T08:48:58.473Z,957.75
2022-09-23T08:51:59.783Z,957.75
2022-09-23T08:54:58.944Z,957.7
2022-09-23T08:58:23.445Z,957.75
2022-09-23T09:00:59.174Z,957.73
2022-09-23T09:03:59.022Z,957.76
2022-09-23T09:07:12.442Z,957.75
2022-09-23T09:09:59.137Z,957.73
2022-09-23T09:12:59.072Z,957.72
2022-09-23T09:15:59.408Z,957.71
2022-09-23T09:18:59.440Z,957.68
2022-09-23T09:21:58.333Z,957.62
2022-09-23T09:24:59.466Z,957.62
2022-09-23T09:27:58.753Z,957.59
2022-09-23T09:30:59.841Z,957.52
2022-09-23T09:33:58.831Z,957.55
2022-09-23T09:37:03.388Z,957.55
2022-09-23T09:39:58.661Z,957.52
2022-09-23T09:42:58.608Z,957.46
2022-09-23T09:45:58.819Z,957.41
2022-09-23T09:48:59.620Z,957.47
2022-09-23T09:51:59.325Z,957.44
2022-09-23T09:54:58.722Z,957.4
2022-09-23T09:57:58.643Z,957.34
2022-09-23T10:00:58.981Z,957.28
2022-09-23T10:03:59.657Z,957.25
2022-09-23T10:06:59.048Z,957.22
2022-09-23T10:10:06.107Z,957.22
2022-09-23T10:12:59.048Z,957.22
2022-09-23T10:15:59.075Z,957.22
2022-09-23T10:18:59.227Z,957.22
2022-09-23T10:21:59.027Z,957.11
2022-09-23T10:24:59.452Z,957.16
2022-09-23T10:27:59.354Z,957.16
2022-09-23T10:30:59.872Z,957.16
2022-09-23T10:33:58.942Z,957.2
2022-09-23T10:36:59.719Z,957.2
2022-09-23T10:39:59.276Z,957.19
2022-09-23T10:42:59.565Z,957.01
2022-09-23T10:45:58.687Z,957.09
2022-09-23T10:48:58.845Z,957.03
2022-09-23T10:51:58.945Z,957.06
2022-09-23T10:54:58.599Z,957.03
2022-09-23T10:57:59.367Z,956.96
2022-09-23T11:00:59.828Z,956.93
2022-09-23T11:04:16.790Z,956.84
2022-09-23T11:06:59.981Z,956.78
2022-09-23T11:09:58.388Z,956.81
2022-09-23T11:12:58.425Z,956.8
2022-09-23T11:15:59.514Z,956.8
2022-09-23T11:18:59.189Z,956.74
2022-09-23T11:21:59.178Z,956.74
2022-09-23T11:24:59.140Z,956.74
2022-09-23T11:27:58.769Z,956.72
2022-09-23T11:30:59.213Z,956.71
2022-09-23T11:33:58.638Z,956.71
2022-09-23T11:36:59.361Z,956.58
2022-09-23T11:39:59.890Z,956.61
2022-09-23T11:42:58.949Z,956.65
2022-09-23T11:45:59.042Z,956.63
2022-09-23T11:48:58.757Z,956.49
2022-09-23T11:51:59.193Z,956.52
2022-09-23T11:54:58.611Z,956.5
2022-09-23T11:57:59.096Z,956.52
2022-09-23T12:01:00.773Z,956.47
2022-09-23T12:04:04.272Z,956.43
2022-09-23T12:06:58.969Z,956.37
2022-09-23T12:09:58.945Z,956.44
2022-09-23T12:12:58.941Z,956.34
2022-09-23T12:15:59.391Z,956.25
2022-09-23T12:18:58.640Z,956.3
2022-09-23T12:21:58.906Z,956.24
2022-09-23T12:24:58.886Z,956.26
2022-09-23T12:27:58.763Z,956.17
2022-09-23T12:30:59.493Z,956.16
2022-09-23T12:33:59.270Z,956.21
2022-09-23T12:36:58.213Z,956.12
2022-09-23T12:39:59.174Z,956.15
2022-09-23T12:42:59.133Z,956.13
2022-09-23T12:45:59.131Z,956.08
2022-09-23T12:48:59.381Z,956.04
2022-09-23T12:51:59.037Z,956.01
2022-09-23T12:54:59.101Z,956.04
2022-09-23T12:57:58.674Z,956.03
2022-09-23T13:00:59.634Z,956.08
2022-09-23T13:03:59.518Z,956.02
2022-09-23T13:06:59.138Z,955.97
2022-09-23T13:09:58.896Z,955.99
2022-09-23T13:12:59.346Z,955.96
2022-09-23T13:15:59.697Z,956.03
2022-09-23T13:18:58.902Z,955.99
2022-09-23T13:21:58.763Z,955.89
2022-09-23T13:24:59.455Z,955.87
2022-09-23T13:27:59.147Z,955.91
2022-09-23T13:30:58.517Z,955.89
2022-09-23T13:33:59.371Z,955.87
2022-09-23T13:36:58.978Z,955.79
2022-09-23T13:39:59.379Z,955.77
2022-09-23T13:42:58.407Z,955.77
2022-09-23T13:45:59.350Z,955.72
2022-09-23T13:48:59.257Z,955.71
2022-09-23T13:51:58.597Z,955.67
2022-09-23T13:54:59.099Z,955.68
2022-09-23T13:57:59.636Z,955.73
2022-09-23T14:00:59.712Z,955.67
2022-09-23T14:03:59.359Z,955.66
2022-09-23T14:06:58.962Z,955.73
2022-09-23T14:09:59.613Z,955.73
2022-09-23T14:12:59.148Z,955.61
2022-09-23T14:15:59.916Z,955.63
2022-09-23T14:18:58.769Z,955.47
2022-09-23T14:21:59.921Z,955.51
2022-09-23T14:24:59.483Z,955.5
2022-09-23T14:28:00.600Z,955.4
2022-09-23T14:30:59.587Z,955.47
2022-09-23T14:33:59.644Z,955.46
2022-09-23T14:36:59.566Z,955.53
2022-09-23T14:39:59.352Z,955.57
2022-09-23T14:42:59.574Z,955.44
2022-09-23T14:45:58.897Z,955.44
2022-09-23T14:48:59.768Z,955.4
2022-09-23T14:51:58.612Z,955.37
2022-09-23T14:54:59.589Z,955.43
2022-09-23T14:57:59.205Z,955.36
2022-09-23T15:00:59.236Z,955.4
2022-09-23T15:03:59.178Z,955.33
2022-09-23T15:06:58.710Z,955.37
2022-09-23T15:09:59.165Z,955.27
2022-09-23T15:12:58.590Z,955.29
2022-09-23T15:15:59.064Z,955.32
2022-09-23T15:18:59.382Z,955.27
2022-09-23T15:21:58.859Z,955.28
2022-09-23T15:24:59.171Z,955.26
2022-09-23T15:27:58.801Z,955.22
2022-09-23T15:30:59.007Z,955.14
2022-09-23T15:33:58.858Z,955.16
2022-09-23T15:36:59.463Z,955.16
2022-09-23T15:39:59.658Z,955.13
2022-09-23T15:42:59.016Z,955.17
2022-09-23T15:45:59.658Z,955.06
2022-09-23T15:48:59.655Z,955.1
2022-09-23T15:51:58.677Z,955.07
2022-09-23T15:54:59.865Z,955.19
2022-09-23T15:57:59.676Z,955.1
2022-09-23T16:01:00.563Z,955.09
2022-09-23T16:03:58.909Z,955.06
2022-09-23T16:06:59.316Z,955.03
2022-09-23T16:09:59.746Z,954.97
2022-09-23T16:12:59.243Z,955.0
2022-09-23T16:15:59.503Z,954.93
2022-09-23T16:18:59.084Z,954.9
2022-09-23T16:21:58.995Z,954.94
2022-09-23T16:24:58.895Z,954.93
2022-09-23T16:27:59.057Z,954.99
2022-09-23T16:30:59.594Z,954.96
2022-09-23T16:33:59.252Z,954.97
2022-09-23T16:36:59.806Z,954.99
2022-09-23T16:39:59.034Z,955.0
2022-09-23T16:42:58.868Z,954.93
2022-09-23T16:45:59.376Z,954.96
2022-09-23T16:48:58.757Z,955.02
2022-09-23T16:51:58.823Z,954.92
2022-09-23T16:54:59.259Z,955.01
2022-09-23T16:57:58.824Z,955.05
2022-09-23T17:00:59.579Z,955.08
2022-09-23T17:03:58.925Z,955.11
2022-09-23T17:06:58.836Z,955.05
2022-09-23T17:09:58.918Z,955.04
2022-09-23T17:12:59.352Z,955.05
2022-09-23T17:16:01.197Z,955.01
2022-09-23T17:18:59.328Z,954.93
2022-09-23T17:21:58.930Z,954.93
2022-09-23T17:24:59.237Z,954.93
2022-09-23T17:27:58.353Z,954.98
2022-09-23T17:30:59.558Z,954.84
2022-09-23T17:33:59.038Z,954.91
2022-09-23T17:36:59.104Z,955.0
2022-09-23T17:39:59.325Z,954.83
2022-09-23T17:42:58.850Z,954.9
2022-09-23T17:45:59.005Z,954.92
2022-09-23T17:48:59.393Z,954.93
2022-09-23T17:51:58.488Z,954.97
2022-09-23T17:54:58.720Z,955.03
2022-09-23T17:57:58.975Z,955.07
2022-09-23T18:01:25.665Z,954.93
2022-09-23T18:03:59.621Z,955.05
2022-09-23T18:06:58.833Z,954.99
2022-09-23T18:09:58.807Z,955.1
2022-09-23T18:12:59.545Z,955.12
2022-09-23T18:15:58.685Z,954.98
2022-09-23T18:18:58.901Z,955.04
2022-09-23T18:21:59.304Z,955.07
2022-09-23T18:24:59.469Z,955.18
2022-09-23T18:27:58.530Z,955.1
2022-09-23T18:30:59.396Z,955.05
2022-09-23T18:33:59.215Z,955.17
2022-09-23T18:36:58.974Z,955.08
2022-09-23T18:39:59.479Z,955.21
2022-09-23T18:42:58.554Z,955.03
2022-09-23T18:45:59.829Z,955.17
2022-09-23T18:48:58.542Z,955.1
2022-09-23T18:51:59.245Z,955.04
2022-09-23T18:54:58.826Z,955.07
2022-09-23T18:57:58.681Z,955.13
2022-09-23T19:00:59.103Z,955.13
2022-09-23T19:03:59.225Z,955.06
2022-09-23T19:06:59.227Z,954.97
2022-09-23T19:10:00.160Z,955.09
2022-09-23T19:12:58.942Z,954.97
2022-09-23T19:15:58.997Z,955.0
2022-09-23T19:18:59.055Z,955.0
2022-09-23T19:21:59.724Z,954.89
2022-09-23T19:25:00.525Z,955.01
2022-09-23T19:27:59.605Z,954.97
2022-09-23T19:30:59.426Z,954.99
2022-09-23T19:33:59.714Z,954.9
2022-09-23T19:36:58.944Z,954.87
2022-09-23T19:39:59.604Z,954.86
2022-09-23T19:42:58.985Z,954.84
2022-09-23T19:45:59.042Z,954.92
2022-09-23T19:48:59.206Z,954.94
2022-09-23T19:51:58.462Z,954.86
2022-09-23T19:54:59.590Z,954.82
2022-09-23T19:57:59.141Z,954.73
2022-09-23T20:00:59.698Z,954.61
2022-09-23T20:03:58.792Z,954.74
2022-09-23T20:06:59.161Z,954.74
2022-09-23T20:09:59.555Z,954.73
2022-09-23T20:12:58.825Z,954.8
2022-09-23T20:15:58.944Z,954.74
2022-09-23T20:18:59.259Z,954.7
2022-09-23T20:21:59.011Z,954.67
2022-09-23T20:24:59.062Z,954.69
2022-09-23T20:27:59.022Z,954.73
2022-09-23T20:30:58.943Z,954.63
2022-09-23T20:33:59.228Z,954.63
2022-09-23T20:36:58.726Z,954.5
2022-09-23T20:39:58.595Z,954.63
2022-09-23T20:42:59.701Z,954.54
2022-09-23T20:45:58.736Z,954.64
2022-09-23T20:48:58.467Z,954.6
2022-09-23T20:51:59.285Z,954.58
2022-09-23T20:54:59.434Z,954.4
2022-09-23T20:57:58.688Z,954.44
2022-09-23T21:00:59.583Z,954.45
2022-09-23T21:03:58.641Z,954.41
2022-09-23T21:06:59.440Z,954.35
2022-09-23T21:09:59.144Z,954.44
2022-09-23T21:12:59.103Z,954.34
2022-09-23T21:15:59.711Z,954.26
2022-09-23T21:18:59.180Z,954.25
2022-09-23T21:21:58.962Z,954.23
2022-09-23T21:25:26.910Z,954.22
2022-09-23T21:27:58.925Z,954.09
2022-09-23T21:30:59.793Z,954.19
2022-09-23T21:33:59.571Z,954.23
2022-09-23T21:36:59.156Z,954.19
2022-09-23T21:39:59.115Z,954.22
2022-09-23T21:42:59.919Z,954.22
2022-09-23T21:45:59.850Z,954.19
2022-09-23T21:48:59.116Z,954.28
2022-09-23T21:51:58.975Z,954.29
2022-09-23T21:54:58.930Z,954.21
2022-09-23T21:57:59.242Z,954.25
2022-09-23T22:01:00.621Z,954.25
2022-09-23T22:03:59.296Z,954.31
2022-09-23T22:06:58.590Z,954.28
2022-09-23T22:09:58.896Z,954.34
2022-09-23T22:12:59.070Z,954.25
2022-09-23T22:15:59.157Z,954.31
2022-09-23T22:18:59.220Z,954.28
2022-09-23T22:21:58.214Z,954.41
2022-09-23T22:24:58.095Z,954.39
2022-09-23T22:27:59.230Z,954.34
2022-09-23T22:30:59.031Z,954.32
2022-09-23T22:33:59.001Z,954.36
2022-09-23T22:36:58.580Z,954.25
2022-09-23T22:39:58.794Z,954.39
2022-09-23T22:42:59.325Z,954.31
2022-09-23T22:45:59.131Z,954.4
2022-09-23T22:48:58.775Z,954.34
2022-09-23T22:51:58.726Z,954.28
2022-09-23T22:54:59.077Z,954.28
2022-09-23T22:58:06.811Z,954.24
2022-09-23T23:00:58.640Z,954.28
2022-09-23T23:03:59.331Z,954.27
2022-09-23T23:06:59.109Z,954.23
2022-09-23T23:09:58.436Z,954.2
2022-09-23T23:12:59.181Z,954.18
2022-09-23T23:15:59.044Z,954.14
2022-09-23T23:18:58.745Z,954.18
2022-09-23T23:21:59.216Z,954.11
2022-09-23T23:24:58.325Z,954.18
2022-09-23T23:27:58.291Z,954.14
2022-09-23T23:30:58.918Z,954.13
2022-09-23T23:33:59.295Z,954.08
2022-09-23T23:36:58.358Z,954.03
2022-09-23T23:39:58.628Z,954.06
2022-09-23T23:42:59.487Z,953.97
2022-09-23T23:45:59.237Z,953.98
2022-09-23T23:48:58.943Z,954.01
2022-09-23T23:51:58.979Z,953.96
2022-09-23T23:54:58.965Z,953.94
2022-09-23T23:57:58.199Z,953.88
